createdAt,value
2023-04-06T00:02:06.363Z,49.10
2023-04-06T00:04:34.263Z,59.80
2023-04-06T00:07:02.073Z,74.60
2023-04-06T00:09:29.848Z,73.20
2023-04-06T00:11:58.879Z,89.10
2023-04-06T00:14:26.658Z,80.60
2023-04-06T00:16:55.065Z,60.90
2023-04-06T00:19:22.971Z,47.10
2023-04-06T00:21:50.904Z,41.50
2023-04-06T00:24:18.778Z,41.00
2023-04-06T00:26:46.590Z,38.00
2023-04-06T00:29:14.419Z,36.00
2023-04-06T00:31:42.242Z,36.40
2023-04-06T00:34:11.292Z,42.40
2023-04-06T00:36:39.466Z,45.40
2023-04-06T00:39:07.494Z,45.50
2023-04-06T00:41:35.611Z,40.20
2023-04-06T00:44:03.398Z,39.30
2023-04-06T00:46:31.359Z,38.30
2023-04-06T00:48:59.218Z,36.20
2023-04-06T00:51:27.733Z,42.00
2023-04-06T00:53:55.653Z,41.40
2023-04-06T00:56:24.744Z,42.90
2023-04-06T00:58:53.283Z,38.20
2023-04-06T01:01:21.218Z,39.10
2023-04-06T01:03:51.084Z,34.30
2023-04-06T01:06:18.904Z,33.40
2023-04-06T01:08:46.659Z,32.60
2023-04-06T01:11:14.419Z,36.80
2023-04-06T01:13:42.223Z,50.60
2023-04-06T01:16:11.024Z,55.10
2023-04-06T01:18:39.633Z,42.60
2023-04-06T01:21:09.677Z,35.00
2023-04-06T01:23:37.526Z,32.40
2023-04-06T01:26:05.721Z,34.30
2023-04-06T01:28:33.561Z,35.20
2023-04-06T01:31:01.399Z,37.60
2023-04-06T01:33:29.287Z,38.90
2023-04-06T01:35:57.208Z,35.70
2023-04-06T01:38:25.510Z,34.20
2023-04-06T01:40:54.518Z,37.40
2023-04-06T01:43:22.997Z,38.50
2023-04-06T01:45:50.860Z,37.00
2023-04-06T01:48:18.667Z,38.60
2023-04-06T01:50:46.503Z,42.80
2023-04-06T01:53:14.398Z,42.10
2023-04-06T01:55:42.256Z,44.70
2023-04-06T01:58:10.060Z,42.80
2023-04-06T02:00:38.009Z,43.40
2023-04-06T02:03:05.994Z,44.70
2023-04-06T02:05:39.230Z,41.80
2023-04-06T02:08:07.452Z,40.30
2023-04-06T02:10:36.070Z,38.60
2023-04-06T02:13:03.942Z,39.90
2023-04-06T02:15:31.741Z,38.60
2023-04-06T02:18:01.150Z,39.20
2023-04-06T02:20:29.001Z,41.10
2023-04-06T02:23:01.000Z,40.20
2023-04-06T02:25:29.118Z,42.90
2023-04-06T02:27:56.955Z,43.90
2023-04-06T02:30:24.696Z,41.70
2023-04-06T02:32:52.577Z,35.30
2023-04-06T02:35:20.558Z,35.60
2023-04-06T02:37:48.314Z,40.00
2023-04-06T02:40:16.157Z,37.80
2023-04-06T02:42:44.047Z,40.00
2023-04-06T02:45:11.923Z,32.80
2023-04-06T02:47:39.835Z,29.60
2023-04-06T02:50:08.010Z,30.50
2023-04-06T02:52:36.112Z,30.30
2023-04-06T02:55:04.376Z,30.50
2023-04-06T02:57:32.205Z,29.00
2023-04-06T02:59:59.980Z,37.30
2023-04-06T03:02:27.910Z,29.90
2023-04-06T03:04:56.019Z,28.30
2023-04-06T03:07:23.889Z,29.80
2023-04-06T03:09:51.800Z,29.10
2023-04-06T03:12:19.606Z,27.10
2023-04-06T03:14:47.510Z,27.10
2023-04-06T03:17:15.715Z,28.50
2023-04-06T03:19:43.716Z,26.30
2023-04-06T03:22:11.708Z,26.50
2023-04-06T03:24:39.565Z,27.80
2023-04-06T03:27:07.450Z,28.20
2023-04-06T03:29:35.338Z,28.50
2023-04-06T03:32:03.161Z,32.20
2023-04-06T03:34:31.083Z,32.30
2023-04-06T03:37:09.280Z,33.10
2023-04-06T03:39:38.011Z,31.70
2023-04-06T03:42:05.918Z,30.00
2023-04-06T03:44:33.659Z,29.70
2023-04-06T03:47:02.018Z,29.10
2023-04-06T03:49:29.950Z,28.40
2023-04-06T03:51:57.964Z,25.40
2023-04-06T03:54:26.014Z,26.20
2023-04-06T03:56:53.831Z,26.20
2023-04-06T03:59:21.728Z,25.80
2023-04-06T04:01:49.604Z,26.20
2023-04-06T04:04:17.751Z,26.50
2023-04-06T04:06:45.591Z,25.50
2023-04-06T04:09:13.542Z,25.50
2023-04-06T04:11:41.455Z,27.00
2023-04-06T04:14:09.428Z,28.00
2023-04-06T04:16:37.413Z,31.60
2023-04-06T04:19:05.511Z,38.90
2023-04-06T04:21:33.463Z,43.00
2023-04-06T04:24:01.431Z,46.40
2023-04-06T04:26:29.222Z,52.80
2023-04-06T04:28:57.036Z,59.50
2023-04-06T04:31:24.832Z,57.30
2023-04-06T04:33:52.577Z,61.50
2023-04-06T04:36:20.731Z,62.10
2023-04-06T04:38:48.743Z,66.60
2023-04-06T04:41:16.553Z,70.40
2023-04-06T04:43:44.955Z,73.20
2023-04-06T04:46:12.854Z,71.80
2023-04-06T04:48:40.855Z,85.30
2023-04-06T04:51:08.873Z,86.10
2023-04-06T04:53:36.824Z,79.30
2023-04-06T04:56:05.098Z,74.70
2023-04-06T04:58:32.913Z,64.50
2023-04-06T05:01:01.428Z,59.70
2023-04-06T05:03:29.818Z,60.30
2023-04-06T05:05:57.752Z,58.00
2023-04-06T05:08:25.989Z,56.60
2023-04-06T05:10:53.820Z,60.70
2023-04-06T05:13:21.765Z,54.00
2023-04-06T05:15:49.697Z,52.50
2023-04-06T05:18:17.836Z,57.10
2023-04-06T05:20:46.231Z,56.50
2023-04-06T05:23:14.753Z,55.50
2023-04-06T05:25:43.001Z,57.30
2023-04-06T05:28:11.192Z,55.60
2023-04-06T05:30:39.013Z,54.50
2023-04-06T05:33:07.156Z,58.90
2023-04-06T05:35:35.051Z,58.50
2023-04-06T05:38:02.858Z,56.70
2023-04-06T05:40:30.709Z,54.80
2023-04-06T05:42:58.605Z,46.50
2023-04-06T05:45:26.677Z,46.80
2023-04-06T05:47:54.554Z,44.70
2023-04-06T05:50:23.508Z,40.80
2023-04-06T05:52:51.426Z,38.10
2023-04-06T05:55:19.833Z,35.10
2023-04-06T05:57:51.332Z,34.00
2023-04-06T06:00:20.186Z,33.70
2023-04-06T06:02:48.196Z,31.30
2023-04-06T06:05:16.669Z,28.10
2023-04-06T06:07:44.932Z,31.90
2023-04-06T06:10:13.150Z,30.30
2023-04-06T06:12:41.102Z,31.70
2023-04-06T06:15:09.993Z,31.30
2023-04-06T06:17:39.175Z,33.40
2023-04-06T06:20:08.885Z,29.80
2023-04-06T06:22:37.589Z,28.90
2023-04-06T06:25:05.626Z,28.30
2023-04-06T06:27:33.757Z,29.00
2023-04-06T06:30:02.744Z,26.10
2023-04-06T06:32:30.702Z,29.60
2023-04-06T06:34:58.582Z,31.60
2023-04-06T06:37:27.467Z,28.20
2023-04-06T06:39:56.546Z,34.20
2023-04-06T06:42:24.406Z,34.30
2023-04-06T06:44:52.872Z,25.90
2023-04-06T06:47:20.921Z,28.90
2023-04-06T06:49:48.660Z,29.40
2023-04-06T06:52:16.464Z,24.30
2023-04-06T06:54:44.719Z,27.60
2023-04-06T06:57:12.679Z,25.60
2023-04-06T06:59:40.672Z,24.90
2023-04-06T07:02:08.452Z,23.30
2023-04-06T07:04:36.528Z,24.00
2023-04-06T07:07:04.658Z,24.00
2023-04-06T07:09:32.620Z,23.20
2023-04-06T07:12:02.018Z,23.40
2023-04-06T07:14:29.810Z,23.40
2023-04-06T07:16:57.743Z,24.60
2023-04-06T07:19:25.711Z,20.30
2023-04-06T07:21:53.788Z,21.40
2023-04-06T07:24:21.618Z,20.80
2023-04-06T07:26:49.410Z,18.90
2023-04-06T07:29:17.314Z,18.00
2023-04-06T07:31:45.115Z,16.50
2023-04-06T07:34:13.175Z,15.40
2023-04-06T07:36:41.095Z,14.60
2023-04-06T07:39:08.962Z,15.50
2023-04-06T07:41:36.919Z,13.20
2023-04-06T07:44:05.785Z,12.40
2023-04-06T07:46:33.815Z,10.80
2023-04-06T07:49:04.435Z,10.20
2023-04-06T07:51:32.430Z,10.80
2023-04-06T07:54:00.888Z,13.10
2023-04-06T07:56:28.726Z,12.20
2023-04-06T07:58:59.871Z,12.40
2023-04-06T08:01:29.490Z,13.00
2023-04-06T08:03:58.147Z,10.00
2023-04-06T08:06:26.255Z,9.10
2023-04-06T08:08:54.368Z,10.00
2023-04-06T08:11:22.453Z,11.40
2023-04-06T08:13:50.546Z,11.00
2023-04-06T08:16:18.605Z,10.90
2023-04-06T08:18:46.418Z,11.50
2023-04-06T08:21:14.264Z,10.60
2023-04-06T08:23:41.995Z,10.60
2023-04-06T08:26:10.721Z,10.30
2023-04-06T08:28:39.220Z,10.60
2023-04-06T08:31:07.255Z,10.90
2023-04-06T08:33:40.242Z,9.80
2023-04-06T08:36:16.084Z,8.90
2023-04-06T08:38:44.093Z,9.20
2023-04-06T08:41:13.619Z,10.10
2023-04-06T08:43:48.355Z,9.20
2023-04-06T08:46:17.229Z,9.00
2023-04-06T08:48:51.161Z,8.20
2023-04-06T08:51:19.913Z,8.60
2023-04-06T08:53:49.662Z,8.70
2023-04-06T08:56:17.714Z,7.90
2023-04-06T08:58:46.219Z,9.00
2023-04-06T09:01:15.235Z,8.70
2023-04-06T09:03:43.672Z,8.30
2023-04-06T09:06:12.919Z,8.30
2023-04-06T09:08:42.144Z,7.60
2023-04-06T09:11:10.675Z,7.40
2023-04-06T09:13:50.624Z,7.60
2023-04-06T09:16:19.461Z,8.20
2023-04-06T09:18:48.587Z,7.10
2023-04-06T09:21:22.627Z,7.40
2023-04-06T09:24:02.943Z,7.60
2023-04-06T09:26:31.341Z,7.20
2023-04-06T09:29:01.319Z,7.00
2023-04-06T09:31:34.305Z,7.10
2023-04-06T09:34:02.911Z,6.70
2023-04-06T09:36:36.329Z,7.30
2023-04-06T09:39:05.843Z,7.20
2023-04-06T09:41:37.565Z,7.40
2023-04-06T09:44:08.540Z,6.90
2023-04-06T09:46:57.675Z,6.80
2023-04-06T09:49:29.100Z,7.40
2023-04-06T09:52:03.991Z,6.80
2023-04-06T09:54:33.067Z,6.90
2023-04-06T09:57:11.285Z,6.30
2023-04-06T10:00:12.676Z,5.90
2023-04-06T10:02:51.745Z,5.70
2023-04-06T10:05:42.225Z,6.60
2023-04-06T10:08:15.223Z,6.50
2023-04-06T10:10:43.743Z,5.80
2023-04-06T10:13:13.219Z,6.40
2023-04-06T10:15:41.820Z,8.20
2023-04-06T10:18:10.015Z,7.20
2023-04-06T10:20:56.953Z,6.50
2023-04-06T10:23:46.452Z,6.50
2023-04-06T10:26:17.524Z,7.00
2023-04-06T10:28:47.700Z,6.30
2023-04-06T10:31:16.115Z,6.40
2023-04-06T10:33:55.582Z,7.70
2023-04-06T10:36:27.537Z,7.20
2023-04-06T10:39:04.339Z,6.00
2023-04-06T10:41:37.529Z,6.70
2023-04-06T10:44:05.942Z,6.60
2023-04-06T10:46:34.947Z,7.10
2023-04-06T10:49:15.868Z,7.00
2023-04-06T10:51:43.685Z,6.40
2023-04-06T10:54:12.526Z,9.50
2023-04-06T10:56:40.702Z,8.30
2023-04-06T10:59:08.951Z,7.20
2023-04-06T11:01:37.333Z,7.50
2023-04-06T11:04:05.843Z,7.70
2023-04-06T11:06:33.797Z,7.30
2023-04-06T11:09:01.845Z,7.30
2023-04-06T11:11:30.259Z,6.80
2023-04-06T11:14:00.601Z,6.80
2023-04-06T11:16:31.839Z,6.70
2023-04-06T11:19:05.314Z,12.10
2023-04-06T11:21:40.493Z,21.00
2023-04-06T11:24:20.606Z,8.10
2023-04-06T11:26:54.902Z,7.10
2023-04-06T11:29:28.514Z,6.30
2023-04-06T11:32:03.188Z,7.00
2023-04-06T11:34:37.927Z,7.20
2023-04-06T11:37:10.291Z,7.40
2023-04-06T11:39:52.845Z,7.00
2023-04-06T11:42:30.417Z,7.60
2023-04-06T11:44:59.555Z,7.50
2023-04-06T11:47:38.900Z,6.90
2023-04-06T11:50:15.361Z,6.70
2023-04-06T11:52:43.963Z,9.90
2023-04-06T11:55:17.418Z,6.10
2023-04-06T11:57:48.269Z,6.20
2023-04-06T12:00:17.066Z,6.00
2023-04-06T12:02:49.787Z,5.20
2023-04-06T12:05:17.952Z,5.10
2023-04-06T12:07:46.035Z,5.30
2023-04-06T12:10:13.890Z,4.40
2023-04-06T12:12:41.751Z,4.40
2023-04-06T12:15:10.422Z,4.40
2023-04-06T12:17:38.466Z,9.30
2023-04-06T12:20:22.053Z,6.20
2023-04-06T12:22:53.026Z,4.90
2023-04-06T12:25:21.160Z,5.00
2023-04-06T12:27:49.063Z,5.20
2023-04-06T12:30:17.171Z,5.70
2023-04-06T12:32:45.101Z,5.70
2023-04-06T12:35:16.709Z,4.90
2023-04-06T12:37:44.702Z,5.00
2023-04-06T12:40:12.951Z,4.80
2023-04-06T12:42:42.403Z,4.80
2023-04-06T12:45:11.154Z,5.10
2023-04-06T12:47:39.289Z,5.50
2023-04-06T12:50:07.926Z,5.20
2023-04-06T12:52:36.536Z,5.80
2023-04-06T12:55:06.273Z,5.60
2023-04-06T12:57:34.242Z,5.30
2023-04-06T13:00:02.741Z,5.00
2023-04-06T13:02:32.172Z,5.70
2023-04-06T13:05:00.343Z,5.40
2023-04-06T13:07:28.840Z,5.80
2023-04-06T13:09:56.880Z,5.50
2023-04-06T13:12:25.154Z,5.60
2023-04-06T13:14:53.640Z,5.70
2023-04-06T13:17:22.217Z,5.40
2023-04-06T13:19:50.531Z,6.10
2023-04-06T13:22:18.479Z,5.20
2023-04-06T13:24:46.674Z,5.10
2023-04-06T13:27:14.627Z,5.20
2023-04-06T13:29:42.679Z,7.00
2023-04-06T13:32:11.528Z,5.30
2023-04-06T13:34:41.600Z,6.30
2023-04-06T13:37:09.593Z,5.80
2023-04-06T13:39:37.595Z,6.30
2023-04-06T13:42:05.602Z,5.60
2023-04-06T13:44:33.929Z,5.30
2023-04-06T13:47:02.180Z,5.30
2023-04-06T13:49:29.978Z,5.60
2023-04-06T13:51:57.898Z,5.90
2023-04-06T13:54:27.600Z,5.60
2023-04-06T13:56:56.101Z,5.80
2023-04-06T13:59:24.048Z,5.70
2023-04-06T14:01:52.042Z,5.10
2023-04-06T14:04:19.886Z,5.40
2023-04-06T14:06:47.792Z,6.20
2023-04-06T14:09:15.659Z,5.80
2023-04-06T14:11:43.534Z,6.00
2023-04-06T14:14:11.627Z,7.00
2023-04-06T14:16:39.705Z,6.00
2023-04-06T14:19:07.933Z,6.40
2023-04-06T14:21:35.850Z,6.80
2023-04-06T14:24:04.094Z,6.70
2023-04-06T14:26:33.084Z,6.40
2023-04-06T14:29:01.374Z,8.00
2023-04-06T14:31:29.753Z,6.90
2023-04-06T14:33:57.998Z,6.90
2023-04-06T14:36:28.587Z,6.90
2023-04-06T14:38:59.814Z,7.80
2023-04-06T14:41:28.012Z,7.90
2023-04-06T14:43:56.418Z,8.20
2023-04-06T14:46:24.395Z,6.60
2023-04-06T14:49:04.804Z,6.50
2023-04-06T14:51:37.275Z,8.30
2023-04-06T14:54:05.508Z,16.50
2023-04-06T14:56:33.504Z,19.80
2023-04-06T14:59:04.657Z,8.60
2023-04-06T15:01:37.193Z,8.40
2023-04-06T15:04:06.020Z,17.40
2023-04-06T15:06:34.079Z,11.10
2023-04-06T15:09:01.867Z,11.40
2023-04-06T15:11:29.808Z,11.40
2023-04-06T15:13:57.785Z,16.70
2023-04-06T15:16:26.434Z,8.90
2023-04-06T15:18:54.409Z,7.10
2023-04-06T15:21:22.462Z,6.90
2023-04-06T15:23:51.502Z,7.60
2023-04-06T15:26:19.593Z,11.80
2023-04-06T15:28:47.676Z,7.80
2023-04-06T15:31:36.844Z,7.30
2023-04-06T15:34:09.139Z,6.90
2023-04-06T15:36:37.408Z,8.30
2023-04-06T15:39:09.618Z,7.80
2023-04-06T15:41:41.104Z,9.00
2023-04-06T15:44:09.183Z,9.20
2023-04-06T15:46:37.029Z,7.50
2023-04-06T15:49:04.981Z,7.90
2023-04-06T15:51:33.883Z,7.50
2023-04-06T15:54:01.818Z,7.00
2023-04-06T15:56:29.677Z,7.00
2023-04-06T15:58:58.228Z,7.00
2023-04-06T16:01:26.457Z,7.60
2023-04-06T16:03:54.559Z,6.60
2023-04-06T16:06:24.644Z,7.20
2023-04-06T16:08:53.095Z,7.80
2023-04-06T16:11:21.834Z,7.90
2023-04-06T16:13:55.138Z,7.90
2023-04-06T16:16:30.968Z,7.70
2023-04-06T16:18:59.062Z,8.80
2023-04-06T16:21:31.565Z,7.80
2023-04-06T16:26:28.700Z,8.50
2023-04-06T16:28:57.306Z,8.60
2023-04-06T16:31:25.675Z,7.30
2023-04-06T16:33:57.178Z,12.40
2023-04-06T16:36:29.765Z,8.10
2023-04-06T16:38:59.175Z,10.90
2023-04-06T16:41:27.938Z,9.90
2023-04-06T16:43:57.490Z,10.60
2023-04-06T16:46:36.078Z,11.80
2023-04-06T16:49:05.850Z,12.50
2023-04-06T16:51:33.990Z,11.90
2023-04-06T16:54:02.719Z,13.00
2023-04-06T16:56:31.961Z,16.20
2023-04-06T16:58:59.859Z,10.60
2023-04-06T17:01:29.731Z,11.00
2023-04-06T17:03:57.822Z,13.70
2023-04-06T17:06:27.727Z,14.50
2023-04-06T17:08:55.890Z,11.30
2023-04-06T17:11:28.581Z,18.50
2023-04-06T17:14:00.766Z,23.10
2023-04-06T17:16:29.282Z,19.30
2023-04-06T17:18:58.140Z,22.60
2023-04-06T17:21:26.351Z,15.10
2023-04-06T17:23:54.580Z,13.20
2023-04-06T17:26:22.342Z,12.60
2023-04-06T17:28:50.270Z,14.40
2023-04-06T17:31:18.359Z,15.40
2023-04-06T17:33:46.533Z,15.00
2023-04-06T17:36:14.735Z,15.20
2023-04-06T17:38:44.325Z,16.20
2023-04-06T17:41:14.014Z,16.50
2023-04-06T17:43:42.232Z,15.30
2023-04-06T17:46:10.292Z,16.50
2023-04-06T17:48:38.190Z,14.40
2023-04-06T17:51:08.964Z,17.50
2023-04-06T17:53:37.277Z,17.80
2023-04-06T17:56:05.616Z,19.00
2023-04-06T17:58:33.888Z,18.90
2023-04-06T18:01:11.685Z,19.00
2023-04-06T18:03:40.143Z,23.00
2023-04-06T18:06:15.864Z,29.30
2023-04-06T18:08:44.460Z,29.20
2023-04-06T18:11:18.597Z,26.80
2023-04-06T18:13:46.852Z,24.70
2023-04-06T18:16:17.482Z,25.90
2023-04-06T18:18:45.899Z,22.20
2023-04-06T18:21:14.722Z,21.60
2023-04-06T18:23:43.267Z,27.90
2023-04-06T18:26:21.449Z,38.30
2023-04-06T18:28:52.612Z,35.40
2023-04-06T18:31:21.990Z,34.50
2023-04-06T18:33:52.921Z,32.90
2023-04-06T18:36:22.541Z,31.10
2023-04-06T18:38:50.942Z,24.50
2023-04-06T18:41:20.737Z,21.90
2023-04-06T18:43:49.671Z,20.50
2023-04-06T18:46:20.280Z,29.00
2023-04-06T18:48:48.535Z,36.80
2023-04-06T18:51:16.977Z,32.10
2023-04-06T18:53:45.132Z,25.60
2023-04-06T18:56:19.073Z,19.40
2023-04-06T18:58:49.084Z,20.30
2023-04-06T19:01:25.866Z,20.80
2023-04-06T19:03:55.189Z,18.90
2023-04-06T19:06:24.788Z,28.90
2023-04-06T19:08:53.525Z,33.80
2023-04-06T19:11:23.363Z,45.40
2023-04-06T19:13:51.395Z,34.50
2023-04-06T19:16:19.398Z,32.60
2023-04-06T19:18:47.324Z,33.10
2023-04-06T19:21:20.514Z,30.80
2023-04-06T19:23:51.156Z,30.40
2023-04-06T19:26:27.901Z,29.90
2023-04-06T19:28:58.257Z,32.50
2023-04-06T19:31:28.979Z,32.10
2023-04-06T19:33:57.375Z,34.70
2023-04-06T19:36:26.203Z,40.50
2023-04-06T19:38:55.164Z,36.60
2023-04-06T19:41:24.242Z,35.20
2023-04-06T19:43:52.300Z,33.80
2023-04-06T19:46:21.645Z,31.50
2023-04-06T19:48:49.974Z,26.70
2023-04-06T19:51:17.985Z,24.30
2023-04-06T19:53:45.934Z,23.70
2023-04-06T19:56:16.328Z,25.20
2023-04-06T19:58:44.477Z,24.70
2023-04-06T20:01:15.527Z,23.00
2023-04-06T20:03:43.939Z,23.00
2023-04-06T20:06:13.246Z,22.00
2023-04-06T20:08:44.473Z,22.80
2023-04-06T20:11:14.220Z,22.40
2023-04-06T20:13:57.510Z,21.90
2023-04-06T20:16:31.492Z,20.80
2023-04-06T20:19:10.113Z,20.30
2023-04-06T20:21:41.511Z,19.80
2023-04-06T20:24:14.308Z,20.50
2023-04-06T20:26:45.851Z,19.60
2023-04-06T20:29:17.329Z,19.20
2023-04-06T20:31:53.520Z,16.00
2023-04-06T20:34:24.509Z,14.50
2023-04-06T20:36:52.918Z,16.20
2023-04-06T20:39:21.054Z,18.90
2023-04-06T20:41:49.149Z,25.50
2023-04-06T20:44:18.336Z,30.10
2023-04-06T20:46:48.931Z,33.10
2023-04-06T20:49:18.425Z,66.60
2023-04-06T20:51:46.358Z,88.20
2023-04-06T20:54:14.244Z,80.90
2023-04-06T20:56:42.081Z,73.90
2023-04-06T20:59:10.944Z,66.80
2023-04-06T21:01:44.208Z,43.70
2023-04-06T21:04:12.735Z,39.30
2023-04-06T21:06:43.851Z,43.80
2023-04-06T21:09:11.830Z,47.80
2023-04-06T21:11:39.881Z,43.60
2023-04-06T21:14:07.924Z,45.40
2023-04-06T21:16:36.730Z,43.30
2023-04-06T21:19:04.628Z,36.30
2023-04-06T21:21:37.226Z,35.70
2023-04-06T21:24:11.784Z,33.30
2023-04-06T21:26:39.887Z,30.90
2023-04-06T21:29:07.915Z,29.70
2023-04-06T21:31:41.224Z,31.70
2023-04-06T21:34:13.185Z,31.10
2023-04-06T21:36:42.140Z,32.40
2023-04-06T21:39:10.390Z,33.10
2023-04-06T21:41:40.454Z,36.10
2023-04-06T21:44:08.465Z,47.80
2023-04-06T21:46:36.488Z,52.80
2023-04-06T21:49:04.413Z,39.90
2023-04-06T21:51:37.024Z,25.40
2023-04-06T21:54:05.487Z,17.40
2023-04-06T21:56:33.823Z,17.10
2023-04-06T21:59:01.737Z,17.30
2023-04-06T22:01:30.023Z,16.80
2023-04-06T22:03:58.264Z,15.00
2023-04-06T22:06:26.697Z,15.30
2023-04-06T22:08:54.681Z,17.30
2023-04-06T22:11:22.597Z,16.30
2023-04-06T22:13:50.506Z,13.60
2023-04-06T22:16:18.735Z,15.20
2023-04-06T22:18:46.917Z,13.50
2023-04-06T22:21:14.872Z,12.20
2023-04-06T22:23:42.913Z,11.80
2023-04-06T22:26:12.229Z,11.30
2023-04-06T22:28:40.030Z,8.10
2023-04-06T22:31:08.532Z,8.60
2023-04-06T22:33:36.409Z,9.90
2023-04-06T22:36:04.756Z,9.60
2023-04-06T22:38:32.684Z,8.40
2023-04-06T22:41:00.590Z,8.30
2023-04-06T22:43:28.488Z,9.20
2023-04-06T22:45:57.197Z,10.20
2023-04-06T22:48:25.238Z,7.60
2023-04-06T22:50:53.190Z,8.60
2023-04-06T22:53:21.249Z,8.20
2023-04-06T22:55:49.136Z,8.90
2023-04-06T22:58:17.187Z,9.30
2023-04-06T23:00:44.971Z,8.90
2023-04-06T23:03:12.859Z,8.40
2023-04-06T23:05:40.723Z,10.40
2023-04-06T23:08:08.701Z,8.80
2023-04-06T23:10:38.663Z,8.70
2023-04-06T23:13:06.432Z,9.50
2023-04-06T23:15:34.226Z,8.50
2023-04-06T23:18:02.433Z,8.80
2023-04-06T23:20:30.305Z,10.00
2023-04-06T23:22:58.209Z,10.00
2023-04-06T23:25:26.263Z,11.70
2023-04-06T23:27:54.269Z,17.40
2023-04-06T23:30:22.357Z,9.00
2023-04-06T23:32:50.489Z,5.90
2023-04-06T23:35:18.563Z,6.60
2023-04-06T23:37:46.651Z,6.30
2023-04-06T23:40:14.641Z,6.70
2023-04-06T23:42:42.645Z,6.10
2023-04-06T23:45:10.900Z,6.00
2023-04-06T23:47:38.770Z,6.60
2023-04-06T23:50:07.503Z,6.40
2023-04-06T23:52:35.513Z,7.70
2023-04-06T23:55:03.806Z,6.70
2023-04-06T23:57:31.665Z,6.50
